Time;durP1;ratioP1;P1;durP2;ratioP2;P2;SDS_P1;SDS_P2;PMS_P1;PMS_P2;Temp;Humidity;BMP_temperature;BMP_pressure;BME280_temperature;BME280_humidity;BME280_pressure;Samples;Min_cycle;Max_cycle;Signal;HPM_P1;HPM_P2
2021/12/25 00:02:04;;;;;;;26.48;19.42;;;;;;;3.45;63.67;94966.44;4874988;29;20503;-62
2021/12/25 00:04:30;;;;;;;28.27;18.15;;;;;;;3.46;62.90;94974.88;4875039;29;20514;-64
2021/12/25 00:06:55;;;;;;;26.33;16.92;;;;;;;3.16;63.53;94949.63;4874320;29;20061;-65
2021/12/25 00:09:21;;;;;;;27.35;17.52;;;;;;;3.24;63.79;94978.22;4874873;29;20040;-63
2021/12/25 00:11:46;;;;;;;28.45;17.25;;;;;;;3.07;63.77;94976.25;4874338;29;20497;-65
2021/12/25 00:14:13;;;;;;;26.85;17.38;;;;;;;2.87;63.83;94930.22;4874570;29;20052;-64
2021/12/25 00:16:39;;;;;;;25.17;17.20;;;;;;;3.07;63.62;94975.44;4874537;29;20037;-64
2021/12/25 00:19:06;;;;;;;26.55;16.75;;;;;;;2.93;64.30;94994.53;4874422;29;20451;-65
2021/12/25 00:21:32;;;;;;;26.42;15.68;;;;;;;2.91;64.23;94992.94;4874582;29;20041;-65
2021/12/25 00:23:58;;;;;;;30.08;17.63;;;;;;;2.58;65.02;94973.63;4873862;29;20025;-65
2021/12/25 00:32:14;;;;;;;29.73;16.73;;;;;;;2.76;65.44;95007.84;4853428;29;20418;-62
2021/12/25 00:34:40;;;;;;;26.90;16.65;;;;;;;2.93;64.35;95003.91;4853263;29;20052;-62
2021/12/25 00:37:07;;;;;;;26.45;16.80;;;;;;;2.71;65.09;95006.34;4853379;29;20037;-67
2021/12/25 00:39:32;;;;;;;24.50;16.63;;;;;;;2.68;65.44;95006.44;4853409;29;20045;-65
2021/12/25 00:42:00;;;;;;;26.25;16.10;;;;;;;2.50;65.67;95013.75;4853103;29;20120;-66
2021/12/25 00:44:26;;;;;;;25.73;16.00;;;;;;;2.78;64.58;94974.69;4853425;29;20078;-65
2021/12/25 00:46:52;;;;;;;22.52;14.68;;;;;;;2.97;64.31;95005.47;4852897;29;20041;-67
2021/12/25 00:49:18;;;;;;;21.23;13.63;;;;;;;2.86;65.19;95025.38;4853285;29;20053;-62
2021/12/25 00:51:43;;;;;;;25.52;16.02;;;;;;;2.81;65.24;95010.25;4837620;29;20042;-63
2021/12/25 00:54:09;;;;;;;20.10;14.10;;;;;;;2.79;65.54;95003.53;4853437;29;20025;-63
2021/12/25 00:56:35;;;;;;;25.17;13.82;;;;;;;2.32;65.71;94954.09;4853300;29;20162;-67
2021/12/25 00:59:00;;;;;;;25.77;15.85;;;;;;;2.23;66.78;94967.13;4852806;29;20161;-66
2021/12/25 01:01:27;;;;;;;23.92;15.57;;;;;;;2.53;66.88;94997.56;4852914;29;20026;-67
2021/12/25 01:03:53;;;;;;;19.92;13.55;;;;;;;2.59;66.17;94974.44;4854683;29;20034;-66
2021/12/25 01:06:19;;;;;;;19.23;13.25;;;;;;;2.58;66.44;94986.34;4875165;29;20838;-67
2021/12/25 01:08:45;;;;;;;20.38;13.80;;;;;;;2.28;67.10;94987.31;4878468;29;20029;-64
2021/12/25 01:11:11;;;;;;;20.88;14.55;;;;;;;2.55;67.13;95006.81;4877231;29;20552;-64
2021/12/25 01:13:43;;;;;;;21.27;12.98;;;;;;;2.68;66.40;94994.53;4876816;29;20057;-67
2021/12/25 01:31:50;;;;;;;24.55;15.80;;;;;;;2.49;67.07;94955.28;4856479;29;20048;-65
2021/12/25 01:49:57;;;;;;;20.77;14.07;;;;;;;2.49;67.43;94968.00;4818959;29;20053;-65
2021/12/25 01:52:29;;;;;;;17.75;12.50;;;;;;;2.61;67.70;94990.53;4819322;29;20053;-66
2021/12/25 01:55:00;;;;;;;23.55;15.25;;;;;;;2.89;66.94;94979.44;4819323;29;20476;-65
2021/12/25 01:57:28;;;;;;;21.13;14.15;;;;;;;2.93;66.58;94973.34;4819251;29;20121;-65
2021/12/25 01:59:55;;;;;;;18.98;13.35;;;;;;;2.68;66.72;94951.25;4818818;29;20480;-66
2021/12/25 02:02:21;;;;;;;20.73;13.13;;;;;;;2.94;66.64;94967.38;4819122;29;20050;-65
2021/12/25 02:04:47;;;;;;;18.27;12.35;;;;;;;3.05;66.12;94967.84;4819003;29;20522;-65
2021/12/25 02:07:12;;;;;;;21.52;13.18;;;;;;;2.89;66.17;94956.50;4818540;29;20042;-62
2021/12/25 02:09:38;;;;;;;19.52;11.90;;;;;;;2.95;66.60;94974.09;4819111;29;20036;-67
2021/12/25 02:12:04;;;;;;;20.63;12.90;;;;;;;2.89;66.13;94938.69;4818505;29;20031;-64
2021/12/25 02:14:30;;;;;;;16.17;11.50;;;;;;;2.80;66.05;94924.53;4818554;29;20092;-67
2021/12/25 02:17:06;;;;;;;18.42;13.13;;;;;;;3.24;65.26;94955.28;4818516;29;20207;-66
2021/12/25 02:19:37;;;;;;;18.70;12.80;;;;;;;3.31;65.40;94956.72;4818581;29;20114;-65
2021/12/25 02:22:03;;;;;;;;;;;;;;;3.32;65.30;94955.00;4818826;29;21143;-63
2021/12/25 02:24:29;;;;;;;18.67;12.57;;;;;;;3.31;65.42;94948.25;4818387;29;19960;-65
2021/12/25 02:26:55;;;;;;;19.00;11.55;;;;;;;3.46;64.77;94952.81;4847505;29;20049;-63
2021/12/25 02:29:21;;;;;;;16.08;11.35;;;;;;;3.60;64.12;94954.00;4876293;29;20090;-65
2021/12/25 02:31:46;;;;;;;18.23;11.48;;;;;;;3.45;64.27;94940.94;4876516;29;20113;-68
2021/12/25 02:34:14;;;;;;;17.10;11.70;;;;;;;3.46;64.73;94957.91;4876227;29;20036;-67
2021/12/25 02:36:40;;;;;;;16.73;12.48;;;;;;;3.50;64.95;94954.34;4876039;29;20619;-65
2021/12/25 02:39:05;;;;;;;19.08;12.88;;;;;;;3.57;64.35;94960.03;4876299;29;20112;-65
2021/12/25 02:41:31;;;;;;;20.13;12.93;;;;;;;3.77;63.95;94961.03;4876170;29;20037;-65
2021/12/25 02:43:56;;;;;;;18.95;11.93;;;;;;;3.62;63.61;94942.88;4875753;29;20101;-63
2021/12/25 02:46:24;;;;;;;19.77;13.00;;;;;;;3.54;64.06;94921.09;4875627;29;20486;-66
2021/12/25 02:48:52;;;;;;;18.42;11.85;;;;;;;3.68;63.44;94921.41;4875970;29;20029;-64
2021/12/25 02:51:17;;;;;;;21.02;12.70;;;;;;;3.66;63.36;94918.91;4875956;29;20034;-64
2021/12/25 02:53:43;;;;;;;20.95;12.98;;;;;;;3.80;63.81;94945.63;4876197;29;20466;-63
2021/12/25 02:56:10;;;;;;;17.13;12.88;;;;;;;4.06;63.20;94949.72;4875882;29;20048;-67
2021/12/25 02:58:35;;;;;;;16.48;11.13;;;;;;;4.06;63.39;94949.72;4875392;29;20413;-63
2021/12/25 03:01:12;;;;;;;18.17;12.52;;;;;;;3.91;63.43;94948.59;4875872;29;20041;-63
2021/12/25 03:03:39;;;;;;;17.70;11.95;;;;;;;3.83;63.46;94941.22;4875943;29;20033;-65
2021/12/25 03:06:07;;;;;;;20.48;13.15;;;;;;;3.81;63.45;94940.47;4875660;29;20033;-64
2021/12/25 03:08:32;;;;;;;18.38;12.93;;;;;;;3.78;63.83;94947.41;4875583;29;20144;-63
2021/12/25 03:10:59;;;;;;;20.05;12.75;;;;;;;3.47;64.63;94940.88;4875162;29;20025;-64
2021/12/25 03:13:44;;;;;;;15.80;11.45;;;;;;;3.79;64.22;94938.88;4875566;29;20087;-64
2021/12/25 03:16:11;;;;;;;18.40;12.55;;;;;;;3.65;64.34;94955.50;4875541;29;20049;-63
2021/12/25 03:18:46;;;;;;;21.27;12.50;;;;;;;3.60;64.44;94923.41;4875453;29;20487;-65
2021/12/25 03:21:13;;;;;;;22.77;12.82;;;;;;;3.33;64.79;94930.34;4875482;29;20489;-64
2021/12/25 03:23:41;;;;;;;19.90;13.07;;;;;;;3.82;63.94;94959.13;4875220;29;20037;-67
2021/12/25 03:26:07;;;;;;;17.98;12.45;;;;;;;3.81;64.22;94958.31;4875452;29;20036;-63
2021/12/25 03:28:37;;;;;;;20.63;13.02;;;;;;;3.67;63.95;94925.69;4874707;29;20100;-64
2021/12/25 03:31:07;;;;;;;17.23;12.10;;;;;;;3.86;63.32;94937.75;4875366;29;20724;-62
2021/12/25 03:33:33;;;;;;;18.35;12.38;;;;;;;3.95;62.83;94959.50;4875375;29;20167;-64
2021/12/25 03:36:01;;;;;;;16.50;11.95;;;;;;;3.79;63.57;94929.50;4874688;29;20486;-64
2021/12/25 03:38:28;;;;;;;19.40;12.75;;;;;;;4.18;62.91;94943.31;4875536;29;20036;-64
2021/12/25 03:40:54;;;;;;;18.08;11.07;;;;;;;4.28;61.75;94946.34;4875142;29;20031;-64
2021/12/25 03:43:20;;;;;;;21.23;11.43;;;;;;;4.13;62.65;94942.66;4874959;29;20045;-65
2021/12/25 03:45:47;;;;;;;16.77;11.30;;;;;;;4.10;62.47;94956.38;4874940;29;20503;-64
2021/12/25 03:58:52;;;;;;;19.27;12.45;;;;;;;3.77;63.19;94932.97;4873630;29;20047;-66
2021/12/25 04:04:35;;;;;;;17.95;12.23;;;;;;;3.82;63.32;94918.31;4875077;29;20041;-67
2021/12/25 04:06:55;;;;;;;15.10;11.75;;;;;;;3.62;63.25;94886.78;4873560;29;20093;-66
2021/12/25 04:09:26;;;;;;;18.42;12.00;;;;;;;4.18;62.96;94958.63;4875181;29;20448;-64
2021/12/25 04:11:53;;;;;;;20.17;11.77;;;;;;;3.89;62.67;94912.13;4857327;29;20498;-67
2021/12/25 04:14:19;;;;;;;14.98;11.25;;;;;;;4.16;62.30;94943.38;4874433;29;20061;-69
2021/12/25 04:16:45;;;;;;;19.45;11.70;;;;;;;3.59;62.35;94869.03;4874811;29;20040;-67
2021/12/25 04:19:11;;;;;;;18.25;11.68;;;;;;;4.24;62.25;94959.22;4874709;29;20085;-66
2021/12/25 04:21:41;;;;;;;21.75;13.15;;;;;;;4.28;62.20;94957.41;4874687;29;20033;-66
2021/12/25 04:24:07;;;;;;;16.33;11.68;;;;;;;4.18;62.31;94925.44;4874305;29;20093;-65
2021/12/25 04:26:37;;;;;;;17.92;10.48;;;;;;;4.22;61.81;94943.13;4874735;29;20742;-66
2021/12/25 04:29:17;;;;;;;15.45;10.73;;;;;;;4.13;62.31;94973.28;4874659;29;20065;-64
2021/12/25 04:32:10;;;;;;;14.80;10.55;;;;;;;3.80;63.52;94951.53;4874548;29;20413;-64
2021/12/25 05:06:51;;;;;;;14.60;10.25;;;;;;;4.15;62.66;94995.31;4823510;29;20157;-65
2021/12/25 05:09:16;;;;;;;15.52;10.68;;;;;;;3.82;63.21;94959.97;4823111;29;20046;-66
2021/12/25 05:11:42;;;;;;;14.52;10.45;;;;;;;3.81;63.05;94937.09;4837630;29;20133;-64
2021/12/25 05:14:08;;;;;;;15.88;9.27;;;;;;;3.97;63.17;94981.53;4837717;29;20113;-64
2021/12/25 05:16:33;;;;;;;13.88;10.43;;;;;;;3.91;63.72;94991.16;4822784;29;20454;-65
2021/12/25 05:18:59;;;;;;;15.85;9.82;;;;;;;3.79;63.76;94988.16;4838357;29;20053;-67
2021/12/25 05:21:25;;;;;;;15.68;10.68;;;;;;;3.70;64.23;94980.81;4850857;29;20072;-64
2021/12/25 05:23:50;;;;;;;17.52;11.07;;;;;;;3.97;63.59;95008.78;4836867;29;20557;-66
2021/12/25 05:26:16;;;;;;;16.63;11.30;;;;;;;3.85;63.73;94980.28;4855360;29;20060;-65
2021/12/25 05:28:45;;;;;;;15.88;10.20;;;;;;;3.92;63.88;94988.53;4855931;29;20458;-65
2021/12/25 05:31:13;;;;;;;15.45;10.98;;;;;;;3.67;63.58;94966.50;4855918;29;20052;-67
2021/12/25 05:33:39;;;;;;;20.02;11.52;;;;;;;3.86;64.16;94989.56;4856667;29;20038;-65
2021/12/25 05:36:06;;;;;;;17.55;12.07;;;;;;;3.91;63.82;94981.75;4856107;29;20048;-63
2021/12/25 05:38:33;;;;;;;18.85;11.50;;;;;;;4.00;63.83;95001.84;4867538;29;20080;-63
2021/12/25 05:40:59;;;;;;;16.25;11.38;;;;;;;3.63;64.23;94964.09;4884402;29;20088;-62
2021/12/25 05:43:25;;;;;;;21.90;12.40;;;;;;;3.76;64.12;94960.22;4895608;29;20032;-63
2021/12/25 05:45:51;;;;;;;20.27;11.52;;;;;;;4.04;63.97;95016.13;4895894;29;20040;-66
2021/12/25 05:48:16;;;;;;;17.85;10.65;;;;;;;4.18;63.59;95012.22;4895548;29;20028;-65
2021/12/25 05:50:44;;;;;;;17.02;11.60;;;;;;;4.22;63.55;95013.78;4895156;29;20488;-63
2021/12/25 05:53:09;;;;;;;15.63;10.35;;;;;;;4.36;62.91;95005.56;4893986;29;20051;-62
2021/12/25 05:56:22;;;;;;;17.40;11.52;;;;;;;4.28;62.32;94997.38;4895420;29;20481;-62
2021/12/25 06:06:38;;;;;;;;;;;;;;;;;;;;;
2021/12/25 06:09:41;;;;;;;13.48;10.15;;;;;;;4.72;61.43;95020.34;4546663;31;21106;-61
2021/12/25 06:40:12;;;;;;;18.50;10.48;;;;;;;4.91;61.18;95033.22;4506113;31;20114;-60
2021/12/25 06:50:21;;;;;;;;;;;;;;;;;;;;;
2021/12/25 07:02:55;;;;;;;;;;;;;;;;;;;;;
2021/12/25 07:06:14;;;;;;;14.82;10.40;;;;;;;5.08;61.02;95061.50;4953610;28;20052;-61
2021/12/25 07:36:14;;;;;;;15.95;10.05;;;;;;;6.24;56.85;95069.38;4787249;29;20051;-63
2021/12/25 07:38:40;;;;;;;17.58;11.15;;;;;;;6.19;56.95;95077.25;4759952;30;20052;-58
2021/12/25 07:41:06;;;;;;;22.52;11.40;;;;;;;5.85;57.01;95042.91;4796107;29;20047;-60
2021/12/25 07:43:32;;;;;;;17.52;11.57;;;;;;;6.15;57.31;95077.44;4795971;29;20054;-62
2021/12/25 07:45:57;;;;;;;18.77;11.68;;;;;;;5.93;57.20;95034.84;4823092;29;20415;-60
2021/12/25 07:48:25;;;;;;;17.75;11.10;;;;;;;6.08;57.56;95089.69;4839511;29;20046;-62
2021/12/25 07:50:51;;;;;;;15.50;11.20;;;;;;;6.16;57.29;95069.69;4851165;29;20470;-60
2021/12/25 07:53:17;;;;;;;16.80;11.07;;;;;;;6.19;57.29;95091.78;4964881;28;20046;-61
2021/12/25 07:55:43;;;;;;;17.60;11.32;;;;;;;6.23;56.73;95065.97;5023004;28;20303;-59
2021/12/25 07:58:10;;;;;;;21.98;12.98;;;;;;;5.86;56.99;95013.00;5044764;28;20055;-62
2021/12/25 08:00:36;;;;;;;15.13;11.30;;;;;;;6.20;56.89;95080.66;5044131;28;20076;-60
2021/12/25 08:03:23;;;;;;;;;;;;;;;;;;;;;
2021/12/25 08:05:48;;;;;;;15.63;12.00;;;;;;;6.23;56.95;95086.47;5025895;28;20044;-61
2021/12/25 08:08:14;;;;;;;22.10;12.27;;;;;;;6.40;56.74;95088.25;5042539;28;20029;-59
2021/12/25 08:10:40;;;;;;;19.80;12.73;;;;;;;6.45;55.80;95049.63;5030518;28;20025;-58
2021/12/25 08:13:06;;;;;;;16.15;12.40;;;;;;;6.86;55.24;95059.66;5031263;28;20175;-60
2021/12/25 08:15:32;;;;;;;21.10;14.63;;;;;;;7.24;54.34;95080.06;5031272;28;20064;-58
2021/12/25 08:18:00;;;;;;;18.58;12.52;;;;;;;7.99;52.61;95077.19;5029660;28;20034;-60
2021/12/25 08:20:26;;;;;;;16.83;11.52;;;;;;;10.32;46.15;95049.53;5030849;28;20041;-60
2021/12/25 08:22:52;;;;;;;15.57;11.70;;;;;;;12.97;40.21;95062.16;5030546;28;20452;-59
2021/12/25 08:25:18;;;;;;;14.45;10.40;;;;;;;14.69;36.06;95051.06;5030812;28;20037;-57
2021/12/25 08:27:45;;;;;;;14.40;10.48;;;;;;;15.91;33.54;95049.06;5031111;28;20409;-58
2021/12/25 08:30:14;;;;;;;17.55;11.02;;;;;;;15.83;33.08;95034.09;5031123;28;20408;-60
2021/12/25 08:32:40;;;;;;;15.93;11.00;;;;;;;15.18;34.15;95059.31;5030928;28;20134;-59
2021/12/25 08:35:08;;;;;;;15.25;11.80;;;;;;;13.51;36.42;95060.88;5030883;28;20033;-58
2021/12/25 08:37:33;;;;;;;14.52;9.40;;;;;;;12.80;38.29;95053.03;5030492;28;20033;-57
2021/12/25 08:39:59;;;;;;;13.48;10.30;;;;;;;13.43;37.09;95014.84;5030763;28;20484;-56
2021/12/25 08:42:25;;;;;;;18.33;11.40;;;;;;;16.84;32.41;95042.00;5030830;28;20033;-57
2021/12/25 08:47:35;;;;;;;13.73;10.98;;;;;;;17.32;30.37;95058.69;5030344;28;20091;-57
2021/12/25 08:50:06;;;;;;;13.40;10.00;;;;;;;15.47;32.96;95038.78;5030479;28;20112;-60
2021/12/25 08:52:32;;;;;;;16.08;10.80;;;;;;;14.67;34.20;95034.81;5030523;28;20022;-57
2021/12/25 08:54:58;;;;;;;13.57;10.00;;;;;;;14.13;35.22;95037.19;5030530;28;20036;-57
2021/12/25 08:57:23;;;;;;;14.07;10.68;;;;;;;13.00;36.71;95026.56;5028050;28;20049;-63
2021/12/25 08:59:54;;;;;;;14.20;10.85;;;;;;;15.66;33.71;95024.25;5029676;28;20056;-58
2021/12/25 09:02:21;;;;;;;13.25;9.63;;;;;;;16.47;31.92;95011.38;5030206;28;20449;-60
2021/12/25 09:04:49;;;;;;;16.35;9.90;;;;;;;18.92;28.32;95017.84;5029021;28;20459;-59
2021/12/25 09:07:15;;;;;;;12.60;10.23;;;;;;;21.39;25.06;94985.94;5030187;28;20097;-62
2021/12/25 09:09:41;;;;;;;12.07;9.68;;;;;;;22.41;23.03;94997.78;5029940;28;20104;-60
2021/12/25 09:12:11;;;;;;;14.38;9.98;;;;;;;23.12;22.26;95002.03;5028155;28;20076;-58
2021/12/25 09:14:37;;;;;;;14.43;8.90;;;;;;;22.05;22.90;95006.88;5030018;28;20040;-60
2021/12/25 09:17:03;;;;;;;11.30;8.80;;;;;;;21.96;23.53;94994.78;5029638;28;20307;-60
2021/12/25 09:19:29;;;;;;;14.00;9.38;;;;;;;20.48;24.56;94995.41;5029690;28;20030;-61
2021/12/25 09:21:54;;;;;;;13.13;9.52;;;;;;;17.82;27.62;94939.38;5029062;28;20461;-63
2021/12/25 09:24:20;;;;;;;10.82;8.57;;;;;;;16.85;29.47;95008.03;5028178;28;20029;-63
2021/12/25 09:26:45;;;;;;;13.05;8.68;;;;;;;15.79;31.37;95006.72;5030065;28;20057;-61
2021/12/25 09:29:11;;;;;;;14.65;9.35;;;;;;;15.12;32.00;94980.16;5029364;28;20024;-62
2021/12/25 09:31:36;;;;;;;14.27;9.38;;;;;;;15.19;32.19;94983.06;5029548;28;20339;-60
2021/12/25 09:34:02;;;;;;;14.90;9.38;;;;;;;14.48;33.66;94999.09;5029848;28;20021;-62
2021/12/25 09:36:29;;;;;;;15.27;9.65;;;;;;;14.27;33.81;94986.84;5028759;28;20021;-62
2021/12/25 09:38:55;;;;;;;13.70;8.70;;;;;;;13.95;34.51;94960.81;5029726;28;20069;-61
2021/12/25 09:41:20;;;;;;;13.43;8.70;;;;;;;13.33;35.86;94991.41;5029360;28;20045;-59
2021/12/25 09:43:48;;;;;;;12.93;9.90;;;;;;;13.39;35.72;94988.31;5029189;28;20567;-58
2021/12/25 09:46:15;;;;;;;13.75;8.48;;;;;;;13.96;35.78;94991.00;5029057;28;20520;-58
2021/12/25 09:48:41;;;;;;;12.20;8.73;;;;;;;13.81;36.37;94990.41;5029028;28;20520;-56
2021/12/25 09:51:07;;;;;;;17.65;10.57;;;;;;;13.78;36.11;94977.66;5027563;28;20022;-59
2021/12/25 09:53:33;;;;;;;13.35;10.27;;;;;;;13.66;35.76;94968.22;5029205;28;20404;-61
2021/12/25 09:56:02;;;;;;;16.02;10.85;;;;;;;13.68;35.38;94959.41;5029320;28;20111;-59
2021/12/25 09:58:28;;;;;;;13.18;9.85;;;;;;;13.68;35.74;94958.59;5028425;28;20064;-63
2021/12/25 10:00:57;;;;;;;15.90;10.73;;;;;;;13.46;35.72;94949.03;5028637;28;20120;-61
2021/12/25 10:03:25;;;;;;;15.23;10.02;;;;;;;13.90;35.53;94971.53;5028887;28;20400;-59
2021/12/25 10:05:51;;;;;;;13.80;10.63;;;;;;;17.84;30.17;94947.03;5028669;28;20112;-61
2021/12/25 10:08:20;;;;;;;14.75;10.10;;;;;;;21.34;25.21;94932.34;5028670;28;20101;-63
2021/12/25 10:10:50;;;;;;;19.00;14.80;;;;;;;23.77;21.51;94931.44;5028200;28;20064;-63
2021/12/25 10:13:31;;;;;;;14.65;12.30;;;;;;;25.30;19.87;94932.47;5028705;28;20072;-60
2021/12/25 10:16:25;;;;;;;18.25;11.57;;;;;;;26.76;17.99;94930.91;5028556;28;20033;-62
2021/12/25 10:18:53;;;;;;;18.77;14.07;;;;;;;28.16;17.05;94916.91;5026963;28;20033;-60
2021/12/25 10:21:25;;;;;;;21.00;13.90;;;;;;;28.44;16.44;94931.72;5028667;28;20116;-62
2021/12/25 10:24:19;;;;;;;25.95;13.50;;;;;;;29.58;15.56;94905.31;5028398;28;20416;-61
2021/12/25 10:26:48;;;;;;;22.63;14.68;;;;;;;30.33;15.22;94901.72;5028637;28;20571;-61
2021/12/25 10:29:26;;;;;;;24.33;19.25;;;;;;;30.93;14.27;94916.94;5028072;28;20026;-62
2021/12/25 10:31:54;;;;;;;22.27;18.48;;;;;;;30.18;14.72;94910.06;5027991;28;20428;-63
2021/12/25 10:34:22;;;;;;;24.17;18.88;;;;;;;30.88;14.49;94911.50;5028226;28;20332;-62
2021/12/25 10:36:49;;;;;;;27.13;21.83;;;;;;;30.28;14.28;94862.50;5026107;28;20507;-61
2021/12/25 10:39:19;;;;;;;22.40;19.35;;;;;;;30.77;14.00;94918.38;5027925;28;20021;-62
2021/12/25 10:41:56;;;;;;;24.15;17.88;;;;;;;30.92;14.19;94923.28;5028117;28;20021;-63
2021/12/25 10:44:28;;;;;;;24.02;19.05;;;;;;;30.12;14.25;94865.75;5026665;28;20059;-62
2021/12/25 10:46:58;;;;;;;23.50;19.95;;;;;;;30.16;14.81;94910.28;5027587;28;20408;-60
2021/12/25 10:49:27;;;;;;;22.63;18.88;;;;;;;29.86;14.74;94891.56;5027949;28;20485;-61
2021/12/25 10:51:52;;;;;;;24.23;19.98;;;;;;;30.02;14.85;94890.19;5028497;28;20035;-59
2021/12/25 10:54:19;;;;;;;23.58;19.73;;;;;;;31.54;13.91;94895.59;5028027;28;20475;-59
2021/12/25 10:56:49;;;;;;;27.85;23.40;;;;;;;31.32;13.51;94864.16;5026337;28;20033;-59
2021/12/25 10:59:17;;;;;;;23.13;19.50;;;;;;;31.32;13.81;94872.16;5027691;28;20025;-61
2021/12/25 11:01:46;;;;;;;22.77;19.73;;;;;;;28.72;15.53;94884.47;5026487;28;20033;-62
2021/12/25 11:04:29;;;;;;;25.35;19.88;;;;;;;26.67;17.29;94893.25;5028320;28;20028;-60
2021/12/25 11:06:55;;;;;;;24.88;20.08;;;;;;;23.89;20.08;94891.53;5027339;28;20033;-58
2021/12/25 11:09:21;;;;;;;28.83;20.80;;;;;;;22.03;22.08;94895.97;5027585;28;20132;-59
2021/12/25 11:12:16;;;;;;;23.35;19.50;;;;;;;20.73;23.85;94878.44;5026983;28;20467;-61
2021/12/25 11:14:43;;;;;;;28.70;21.00;;;;;;;23.92;20.91;94870.91;5026068;28;20037;-61
2021/12/25 11:17:25;;;;;;;24.83;19.67;;;;;;;25.53;19.04;94852.25;5027662;28;20026;-61
2021/12/25 11:19:59;;;;;;;23.67;18.58;;;;;;;26.65;18.15;94860.09;5027470;28;20025;-63
2021/12/25 11:22:27;;;;;;;26.27;21.08;;;;;;;27.59;17.22;94843.22;5027394;28;20026;-60
2021/12/25 11:24:53;;;;;;;22.40;19.02;;;;;;;28.84;16.20;94843.97;5027263;28;20017;-62
2021/12/25 11:27:21;;;;;;;25.27;20.63;;;;;;;28.66;15.80;94818.97;5026200;28;20033;-64
2021/12/25 11:29:46;;;;;;;26.33;21.88;;;;;;;28.73;15.99;94834.88;5027524;28;20048;-63
2021/12/25 11:32:12;;;;;;;27.23;20.35;;;;;;;29.08;15.87;94848.50;5027098;28;20569;-62
2021/12/25 11:34:38;;;;;;;24.70;20.38;;;;;;;29.41;15.56;94812.09;5026929;28;20253;-62
2021/12/25 11:37:05;;;;;;;25.13;19.30;;;;;;;29.72;15.55;94832.41;5027228;28;20033;-65
2021/12/25 11:39:32;;;;;;;27.92;20.60;;;;;;;30.22;15.05;94836.78;5027344;28;20029;-63
2021/12/25 11:42:06;;;;;;;24.13;18.13;;;;;;;30.50;14.84;94830.94;5027409;28;20022;-62
2021/12/25 11:44:46;;;;;;;19.52;16.88;;;;;;;29.94;14.90;94782.34;5028797;28;20044;-62
2021/12/25 11:47:39;;;;;;;22.77;16.92;;;;;;;30.24;15.06;94818.78;5030268;28;20037;-64
2021/12/25 11:50:17;;;;;;;20.63;16.60;;;;;;;30.12;14.88;94815.22;5029540;28;20033;-60
2021/12/25 11:53:03;;;;;;;17.15;14.65;;;;;;;29.90;15.04;94823.66;5030682;28;20438;-62
2021/12/25 11:58:16;;;;;;;20.80;13.52;;;;;;;29.54;15.64;94800.53;5030442;28;20065;-59
2021/12/25 12:00:45;;;;;;;13.65;11.52;;;;;;;30.04;14.87;94817.19;5030358;28;20110;-60
2021/12/25 12:03:38;;;;;;;17.63;11.70;;;;;;;30.63;14.90;94818.47;5030849;28;20088;-62
2021/12/25 12:06:05;;;;;;;15.88;11.90;;;;;;;31.25;14.40;94805.66;5030799;28;20475;-59
2021/12/25 12:08:53;;;;;;;15.25;12.07;;;;;;;31.72;14.14;94812.84;5030223;28;20038;-62
2021/12/25 12:11:24;;;;;;;16.52;11.30;;;;;;;32.44;13.19;94814.31;5029879;28;20515;-63
2021/12/25 12:14:16;;;;;;;15.18;11.70;;;;;;;32.50;13.25;94793.84;5030034;28;20031;-61
2021/12/25 12:16:54;;;;;;;13.57;9.80;;;;;;;32.24;12.91;94793.41;5027075;28;20037;-60
2021/12/25 12:19:36;;;;;;;11.02;9.00;;;;;;;31.83;13.13;94819.22;5030203;28;20331;-62
2021/12/25 12:22:14;;;;;;;12.57;8.68;;;;;;;31.77;13.71;94809.47;5030527;28;20040;-63
2021/12/25 12:24:47;;;;;;;13.57;8.77;;;;;;;31.68;13.17;94798.34;5029534;28;20029;-63
2021/12/25 12:27:31;;;;;;;11.35;8.52;;;;;;;31.70;13.46;94805.09;5060055;28;20110;-63
2021/12/25 12:29:57;;;;;;;15.98;9.48;;;;;;;30.47;14.29;94811.94;5030448;28;20021;-61
2021/12/25 12:32:45;;;;;;;13.02;8.88;;;;;;;26.68;17.59;94830.59;5029998;28;20082;-61
2021/12/25 12:35:28;;;;;;;11.80;8.90;;;;;;;24.40;19.79;94826.50;5029384;28;20056;-62
2021/12/25 12:37:54;;;;;;;12.52;9.27;;;;;;;22.66;22.03;94828.50;5030156;28;20068;-60
2021/12/25 12:40:26;;;;;;;13.15;9.52;;;;;;;21.60;23.32;94841.16;5030335;28;20053;-59
2021/12/25 12:42:57;;;;;;;15.93;8.82;;;;;;;20.22;25.21;94804.34;5028576;28;20035;-62
2021/12/25 12:45:33;;;;;;;16.00;9.73;;;;;;;19.53;26.42;94845.44;5029446;28;20028;-60
2021/12/25 12:48:20;;;;;;;13.23;8.23;;;;;;;18.73;27.36;94820.25;5029834;28;20079;-62
2021/12/25 12:50:50;;;;;;;9.77;7.07;;;;;;;18.10;28.20;94834.19;5029964;28;20049;-63
2021/12/25 12:53:17;;;;;;;14.68;9.00;;;;;;;17.20;29.64;94787.84;5029958;28;20460;-60
2021/12/25 12:55:46;;;;;;;12.13;8.50;;;;;;;17.18;30.28;94851.47;5029397;28;20505;-63
2021/12/25 12:58:15;;;;;;;12.10;7.82;;;;;;;16.62;30.97;94832.19;5029215;28;20049;-61
2021/12/25 13:00:47;;;;;;;11.40;7.68;;;;;;;16.21;31.73;94840.13;5029440;28;20132;-60
2021/12/25 13:03:14;;;;;;;12.70;7.90;;;;;;;15.90;32.19;94814.22;5029621;28;20025;-60
2021/12/25 13:05:43;;;;;;;11.40;7.93;;;;;;;16.02;31.86;94843.53;5029686;28;20022;-62
2021/12/25 13:08:13;;;;;;;14.18;7.68;;;;;;;15.70;32.79;94823.72;5029371;28;20061;-61
2021/12/25 13:13:23;;;;;;;13.13;9.25;;;;;;;15.34;33.70;94851.88;5029425;28;20473;-60
2021/12/25 13:16:05;;;;;;;18.27;10.45;;;;;;;15.20;34.32;94860.03;5028976;28;20596;-61
2021/12/25 13:18:45;;;;;;;17.20;10.52;;;;;;;15.06;34.90;94848.19;5029178;28;20036;-62
2021/12/25 13:21:17;;;;;;;16.95;10.50;;;;;;;14.62;35.41;94852.69;5029234;28;20033;-59
2021/12/25 13:23:49;;;;;;;13.30;8.77;;;;;;;14.36;35.71;94802.91;5026874;28;20469;-59
2021/12/25 13:26:19;;;;;;;24.60;14.65;;;;;;;14.56;35.37;94835.00;5028817;28;20459;-61
2021/12/25 13:28:46;;;;;;;16.40;8.63;;;;;;;14.23;35.54;94803.91;5027736;28;20449;-61
2021/12/25 13:31:16;;;;;;;14.95;9.57;;;;;;;14.30;35.90;94819.81;5029256;28;20056;-61
2021/12/25 13:33:44;;;;;;;16.58;10.05;;;;;;;14.42;35.78;94859.47;5029005;28;20036;-61
2021/12/25 13:36:12;;;;;;;15.23;9.80;;;;;;;14.13;36.18;94858.28;5028464;28;20093;-58
2021/12/25 13:38:44;;;;;;;17.15;10.15;;;;;;;13.87;37.05;94862.09;5028830;28;20025;-59
2021/12/25 13:41:09;;;;;;;14.75;8.50;;;;;;;13.66;38.15;94862.84;5060525;28;20029;-57
2021/12/25 13:43:35;;;;;;;14.43;8.73;;;;;;;13.44;37.63;94835.16;5028632;28;20355;-58
2021/12/25 13:46:00;;;;;;;12.82;8.93;;;;;;;13.22;37.89;94823.03;5028884;28;20022;-58
2021/12/25 13:48:26;;;;;;;20.20;10.38;;;;;;;13.16;39.07;94854.56;5027788;28;20025;-59
2021/12/25 13:51:01;;;;;;;13.68;8.15;;;;;;;13.03;38.49;94844.31;5028454;28;20025;-61
2021/12/25 13:53:28;;;;;;;12.50;8.05;;;;;;;12.92;39.21;94847.72;5028826;28;20017;-61
2021/12/25 13:55:54;;;;;;;18.30;10.18;;;;;;;12.68;40.15;94843.41;5028834;28;20054;-59
2021/12/25 13:58:20;;;;;;;17.20;10.70;;;;;;;12.36;40.41;94817.31;5029076;28;20501;-60
2021/12/25 14:00:49;;;;;;;17.23;10.32;;;;;;;12.30;41.29;94835.91;5026447;28;20075;-59
2021/12/25 14:03:22;;;;;;;16.17;11.45;;;;;;;11.99;41.57;94834.69;5028210;28;20527;-60
2021/12/25 14:05:51;;;;;;;15.68;10.40;;;;;;;11.56;42.69;94817.88;5028073;28;20045;-58
2021/12/25 14:08:23;;;;;;;13.68;9.32;;;;;;;11.57;42.97;94835.81;5027694;28;20104;-58
2021/12/25 14:10:49;;;;;;;19.35;10.77;;;;;;;11.39;43.41;94829.34;5027897;28;20105;-58
2021/12/25 14:13:19;;;;;;;21.65;10.32;;;;;;;11.12;44.27;94826.91;5026845;28;20239;-60
2021/12/25 14:15:51;;;;;;;16.98;9.20;;;;;;;10.98;44.45;94825.25;5027621;28;20040;-58
2021/12/25 14:18:19;;;;;;;22.33;12.07;;;;;;;11.16;44.53;94836.09;5028611;28;20031;-59
2021/12/25 14:20:45;;;;;;;16.02;10.02;;;;;;;11.15;44.71;94837.00;5028088;28;20116;-61
2021/12/25 14:23:14;;;;;;;18.02;10.52;;;;;;;11.02;45.00;94821.56;5027732;28;20037;-57
2021/12/25 14:25:56;;;;;;;17.67;11.13;;;;;;;10.83;46.04;94840.84;5026350;28;20448;-60
2021/12/25 14:28:33;;;;;;;20.02;11.40;;;;;;;10.85;45.55;94826.09;5027944;28;20071;-59
2021/12/25 14:31:16;;;;;;;17.38;10.43;;;;;;;10.47;45.15;94790.78;5026833;28;20061;-62
2021/12/25 14:34:00;;;;;;;17.50;10.32;;;;;;;10.70;46.13;94847.75;5026282;28;20028;-60